createdAt,value
2023-05-18T00:00:06.843Z,2.28
2023-05-18T00:02:52.563Z,2.10
2023-05-18T00:05:38.998Z,1.75
2023-05-18T00:08:25.145Z,1.60
2023-05-18T00:11:11.512Z,1.60
2023-05-18T00:13:57.225Z,1.38
2023-05-18T00:16:43.146Z,1.50
2023-05-18T00:19:32.650Z,1.55
2023-05-18T00:22:21.038Z,1.60
2023-05-18T00:25:09.192Z,1.67
2023-05-18T00:27:56.227Z,1.80
2023-05-18T00:30:42.244Z,1.95
2023-05-18T00:33:29.129Z,1.88
2023-05-18T00:36:15.836Z,2.08
2023-05-18T00:39:01.781Z,1.80
2023-05-18T00:41:48.063Z,1.58
2023-05-18T00:44:33.940Z,1.60
2023-05-18T00:47:21.803Z,2.40
2023-05-18T00:50:08.130Z,2.67
2023-05-18T00:52:54.990Z,1.90
2023-05-18T00:55:41.110Z,2.38
2023-05-18T00:58:27.209Z,2.13
2023-05-18T01:01:13.371Z,2.00
2023-05-18T01:04:02.485Z,2.72
2023-05-18T01:06:56.603Z,2.45
2023-05-18T01:09:43.153Z,2.50
2023-05-18T01:12:37.966Z,3.17
2023-05-18T01:15:33.839Z,3.15
2023-05-18T01:18:38.450Z,2.83
2023-05-18T01:24:29.587Z,2.95
2023-05-18T01:27:17.947Z,2.50
2023-05-18T01:30:08.318Z,2.42
2023-05-18T01:32:54.874Z,2.33
2023-05-18T01:35:48.813Z,2.50
2023-05-18T01:38:35.809Z,2.05
2023-05-18T01:41:27.161Z,1.55
2023-05-18T01:44:19.176Z,1.75
2023-05-18T01:47:04.997Z,1.25
2023-05-18T01:50:05.879Z,1.88
2023-05-18T01:53:01.081Z,1.30
2023-05-18T01:55:49.091Z,1.23
2023-05-18T01:58:39.570Z,1.65
2023-05-18T02:01:26.130Z,1.70
2023-05-18T02:04:12.623Z,1.48
2023-05-18T02:06:58.761Z,1.30
2023-05-18T02:09:45.174Z,1.20
2023-05-18T02:12:31.356Z,1.40
2023-05-18T02:15:17.321Z,1.38
2023-05-18T02:18:03.381Z,1.33
2023-05-18T02:20:51.207Z,1.30
2023-05-18T02:23:37.305Z,1.40
2023-05-18T02:26:23.303Z,1.10
2023-05-18T02:29:12.151Z,1.40
2023-05-18T02:31:58.211Z,1.10
2023-05-18T02:34:46.789Z,0.82
2023-05-18T02:37:35.533Z,0.75
2023-05-18T02:40:22.402Z,0.93
2023-05-18T02:43:08.379Z,0.95
2023-05-18T02:45:54.806Z,1.10
2023-05-18T02:48:45.669Z,1.10
2023-05-18T02:51:32.341Z,0.90
2023-05-18T02:54:19.648Z,0.80
2023-05-18T02:57:05.470Z,1.00
2023-05-18T03:00:00.657Z,1.02
2023-05-18T03:02:48.604Z,0.82
2023-05-18T03:05:35.184Z,0.70
2023-05-18T03:08:22.991Z,0.90
2023-05-18T03:11:08.979Z,0.60
2023-05-18T03:13:55.083Z,0.60
2023-05-18T03:16:41.236Z,0.70
2023-05-18T03:19:36.283Z,0.70
2023-05-18T03:22:22.495Z,0.82
2023-05-18T03:25:09.179Z,0.45
2023-05-18T03:27:55.534Z,0.68
2023-05-18T03:30:41.677Z,0.60
2023-05-18T03:33:28.348Z,0.80
2023-05-18T03:36:13.968Z,0.70
2023-05-18T03:39:00.206Z,0.77
2023-05-18T03:41:46.989Z,0.85
2023-05-18T03:44:33.688Z,0.77
2023-05-18T03:47:22.186Z,0.60
2023-05-18T03:50:09.010Z,0.80
2023-05-18T03:52:55.891Z,0.90
2023-05-18T03:55:41.944Z,0.85
2023-05-18T03:58:29.285Z,0.90
2023-05-18T04:01:18.867Z,1.00
2023-05-18T04:04:05.120Z,0.82
2023-05-18T04:06:51.764Z,0.98
2023-05-18T04:09:38.552Z,0.90
2023-05-18T04:12:24.397Z,1.00
2023-05-18T04:15:14.779Z,1.23
2023-05-18T04:18:02.294Z,1.10
2023-05-18T04:20:48.099Z,1.13
2023-05-18T04:23:39.121Z,1.10
2023-05-18T04:26:25.830Z,1.00
2023-05-18T04:29:13.504Z,1.17
2023-05-18T04:32:02.308Z,1.13
2023-05-18T04:34:49.740Z,0.90
2023-05-18T04:37:36.022Z,1.52
2023-05-18T04:40:22.818Z,1.60
2023-05-18T04:43:09.605Z,1.50
2023-05-18T04:45:55.860Z,2.75
2023-05-18T04:48:42.532Z,2.33
2023-05-18T04:51:28.642Z,1.90
2023-05-18T04:54:16.233Z,1.88
2023-05-18T04:57:03.763Z,1.73
2023-05-18T04:59:50.255Z,1.83
2023-05-18T05:02:36.434Z,1.42
2023-05-18T05:05:24.562Z,1.35
2023-05-18T05:08:10.816Z,1.80
2023-05-18T05:10:57.059Z,1.60
2023-05-18T05:13:43.170Z,1.38
2023-05-18T05:16:29.316Z,1.50
2023-05-18T05:19:16.915Z,1.30
2023-05-18T05:22:03.110Z,0.90
2023-05-18T05:24:48.988Z,1.27
2023-05-18T05:27:35.062Z,1.10
2023-05-18T05:30:21.983Z,0.93
2023-05-18T05:33:08.053Z,1.20
2023-05-18T05:35:54.902Z,1.00
2023-05-18T05:38:41.173Z,0.90
2023-05-18T05:41:27.699Z,0.73
2023-05-18T05:44:13.942Z,0.82
2023-05-18T05:47:00.592Z,1.63
2023-05-18T05:49:46.567Z,1.08
2023-05-18T05:52:32.835Z,0.77
2023-05-18T05:55:19.668Z,0.70
2023-05-18T05:58:05.725Z,1.17
2023-05-18T06:00:51.817Z,0.82
2023-05-18T06:03:39.148Z,0.75
2023-05-18T06:06:29.312Z,0.70
2023-05-18T06:09:16.118Z,0.68
2023-05-18T06:12:02.599Z,0.60
2023-05-18T06:14:48.691Z,0.60
2023-05-18T06:17:35.259Z,0.80
2023-05-18T06:20:21.192Z,0.65
2023-05-18T06:23:07.201Z,0.93
2023-05-18T06:26:16.823Z,1.13
2023-05-18T06:29:03.758Z,1.02
2023-05-18T06:31:56.053Z,0.75
2023-05-18T06:34:53.718Z,1.00
2023-05-18T06:37:40.049Z,0.98
2023-05-18T06:40:26.352Z,0.60
2023-05-18T06:43:12.672Z,0.95
2023-05-18T06:46:28.104Z,0.63
2023-05-18T06:49:17.642Z,0.90
2023-05-18T06:52:04.156Z,0.50
2023-05-18T06:54:51.719Z,1.00
2023-05-18T06:57:38.340Z,0.73
2023-05-18T07:00:24.823Z,0.40
2023-05-18T07:03:11.209Z,0.63
2023-05-18T07:05:57.505Z,0.50
2023-05-18T07:08:44.759Z,0.40
2023-05-18T07:11:30.911Z,0.57
2023-05-18T07:14:16.750Z,0.63
2023-05-18T07:17:04.094Z,1.48
2023-05-18T07:19:50.258Z,1.75
2023-05-18T07:22:36.415Z,1.50
2023-05-18T07:25:24.115Z,1.10
2023-05-18T07:28:11.142Z,2.38
2023-05-18T07:30:57.276Z,2.10
2023-05-18T07:33:45.176Z,1.10
2023-05-18T07:36:31.336Z,0.93
2023-05-18T07:39:19.484Z,1.00
2023-05-18T07:42:06.717Z,1.17
2023-05-18T07:44:54.112Z,0.70
2023-05-18T07:47:40.708Z,1.05
2023-05-18T07:50:26.858Z,1.00
2023-05-18T07:53:12.830Z,0.50
2023-05-18T07:55:58.705Z,0.60
2023-05-18T07:58:46.053Z,1.35
2023-05-18T08:01:32.252Z,0.60
2023-05-18T08:04:18.619Z,0.40
2023-05-18T08:07:05.047Z,0.88
2023-05-18T08:09:51.231Z,1.00
2023-05-18T08:12:37.388Z,1.00
2023-05-18T08:15:23.591Z,0.90
2023-05-18T08:18:09.620Z,1.10
2023-05-18T08:20:55.843Z,1.90
2023-05-18T08:23:41.996Z,1.50
2023-05-18T08:26:28.228Z,1.60
2023-05-18T08:29:14.277Z,1.00
2023-05-18T08:32:00.554Z,3.00
2023-05-18T08:34:46.957Z,1.15
2023-05-18T08:37:33.230Z,0.82
2023-05-18T08:40:19.107Z,0.93
2023-05-18T08:43:14.110Z,0.60
2023-05-18T08:46:30.008Z,0.95
2023-05-18T08:49:19.531Z,2.97
2023-05-18T08:52:05.886Z,0.93
2023-05-18T08:54:52.549Z,0.75
2023-05-18T08:57:39.704Z,0.80
2023-05-18T09:00:25.864Z,1.08
2023-05-18T09:03:12.588Z,1.02
2023-05-18T09:05:59.911Z,1.45
2023-05-18T09:08:46.745Z,1.55
2023-05-18T09:11:34.373Z,0.93
2023-05-18T09:14:23.161Z,1.08
2023-05-18T09:17:10.009Z,1.60
2023-05-18T09:19:56.140Z,1.60
2023-05-18T09:22:42.419Z,1.20
2023-05-18T09:25:30.485Z,1.20
2023-05-18T09:28:33.500Z,1.52
2023-05-18T09:31:30.894Z,1.02
2023-05-18T09:34:19.453Z,1.20
2023-05-18T09:37:06.386Z,1.17
2023-05-18T09:40:09.095Z,1.58
2023-05-18T09:42:55.948Z,1.10
2023-05-18T09:45:50.759Z,1.35
2023-05-18T09:48:44.484Z,1.80
2023-05-18T09:51:31.830Z,1.70
2023-05-18T09:54:17.889Z,0.80
2023-05-18T10:00:07.200Z,1.33
2023-05-18T10:02:53.544Z,1.55
2023-05-18T10:05:42.473Z,1.33
2023-05-18T10:08:28.375Z,1.17
2023-05-18T10:11:18.866Z,0.80
2023-05-18T10:14:05.213Z,1.00
2023-05-18T10:17:00.276Z,1.08
2023-05-18T10:19:56.091Z,1.23
2023-05-18T10:22:48.982Z,0.90
2023-05-18T10:25:38.589Z,1.42
2023-05-18T10:28:39.352Z,1.40
2023-05-18T10:31:26.599Z,1.35
2023-05-18T10:34:13.153Z,2.30
2023-05-18T10:37:04.146Z,2.05
2023-05-18T10:39:51.777Z,1.60
2023-05-18T10:42:38.585Z,1.35
2023-05-18T10:45:24.898Z,6.90
2023-05-18T10:48:11.234Z,1.77
2023-05-18T10:50:58.632Z,1.83
2023-05-18T10:53:47.751Z,1.77
2023-05-18T10:56:36.003Z,1.48
2023-05-18T10:59:25.296Z,1.38
2023-05-18T11:02:13.904Z,1.80
2023-05-18T11:05:00.094Z,2.95
2023-05-18T11:07:47.362Z,1.92
2023-05-18T11:10:35.346Z,1.90
2023-05-18T11:13:30.652Z,1.90
2023-05-18T11:16:17.435Z,1.63
2023-05-18T11:19:07.894Z,1.60
2023-05-18T11:21:54.356Z,1.08
2023-05-18T11:24:42.522Z,0.95
2023-05-18T11:27:29.148Z,1.10
2023-05-18T11:30:45.249Z,0.90
2023-05-18T11:33:31.299Z,1.15
2023-05-18T11:36:24.650Z,1.10
2023-05-18T11:39:13.519Z,1.30
2023-05-18T11:42:06.700Z,1.38
2023-05-18T11:44:56.403Z,1.20
2023-05-18T11:47:42.473Z,1.35
2023-05-18T11:50:30.577Z,1.10
2023-05-18T11:53:20.044Z,1.40
2023-05-18T11:56:06.655Z,1.40
2023-05-18T11:59:12.538Z,1.90
2023-05-18T12:02:00.680Z,1.25
2023-05-18T12:05:13.756Z,1.50
2023-05-18T12:08:00.458Z,1.42
2023-05-18T12:11:30.130Z,1.63
2023-05-18T12:14:18.568Z,1.70
2023-05-18T12:17:05.189Z,2.45
2023-05-18T12:19:51.563Z,1.60
2023-05-18T12:22:42.610Z,2.17
2023-05-18T12:25:28.549Z,1.30
2023-05-18T12:28:15.750Z,1.77
2023-05-18T12:31:07.259Z,1.50
2023-05-18T12:33:58.894Z,1.77
2023-05-18T12:36:53.919Z,2.67
2023-05-18T12:39:39.546Z,1.63
2023-05-18T12:42:25.579Z,1.77
2023-05-18T12:45:11.739Z,1.88
2023-05-18T12:48:15.325Z,1.75
2023-05-18T12:51:02.771Z,2.15
2023-05-18T12:53:51.021Z,2.80
2023-05-18T12:56:53.406Z,2.90
2023-05-18T12:59:47.980Z,1.85
2023-05-18T13:02:38.025Z,3.53
2023-05-18T13:05:24.697Z,2.65
2023-05-18T13:08:15.763Z,2.47
2023-05-18T13:11:12.683Z,2.45
2023-05-18T13:14:02.265Z,2.25
2023-05-18T13:16:51.277Z,2.30
2023-05-18T13:19:37.524Z,2.70
2023-05-18T13:22:23.754Z,2.38
2023-05-18T13:25:09.738Z,2.60
2023-05-18T13:27:56.494Z,2.67
2023-05-18T13:30:43.433Z,2.08
2023-05-18T13:33:29.550Z,2.28
2023-05-18T13:36:16.330Z,2.05
2023-05-18T13:39:05.604Z,3.17
2023-05-18T13:41:51.563Z,1.98
2023-05-18T13:44:37.948Z,3.75
2023-05-18T13:47:23.969Z,2.42
2023-05-18T13:50:10.510Z,3.13
2023-05-18T13:52:56.563Z,2.05
2023-05-18T13:55:42.611Z,1.70
2023-05-18T13:58:28.528Z,1.90
2023-05-18T14:01:18.010Z,2.90
2023-05-18T14:04:04.147Z,2.00
2023-05-18T14:06:49.984Z,3.67
2023-05-18T14:09:36.217Z,2.03
2023-05-18T14:12:21.984Z,2.00
2023-05-18T14:15:08.778Z,1.90
2023-05-18T14:17:55.322Z,3.13
2023-05-18T14:20:41.195Z,2.20
2023-05-18T14:23:30.130Z,1.92
2023-05-18T14:26:16.778Z,2.33
2023-05-18T14:29:06.059Z,2.15
2023-05-18T14:31:54.885Z,2.33
2023-05-18T14:34:40.861Z,1.77
2023-05-18T14:37:27.359Z,1.90
2023-05-18T14:40:13.548Z,2.03
2023-05-18T14:42:59.917Z,1.83
2023-05-18T14:45:50.545Z,2.33
2023-05-18T14:48:45.327Z,2.15
2023-05-18T14:51:31.330Z,2.20
2023-05-18T14:54:19.086Z,1.92
2023-05-18T14:57:05.562Z,2.78
2023-05-18T14:59:52.808Z,2.30
2023-05-18T15:02:39.002Z,2.67
2023-05-18T15:05:25.190Z,2.75
2023-05-18T15:08:11.084Z,2.95
2023-05-18T15:10:57.159Z,2.88
2023-05-18T15:13:44.156Z,2.90
2023-05-18T15:20:58.672Z,3.30
2023-05-18T15:23:55.342Z,3.58
2023-05-18T15:26:42.043Z,3.00
2023-05-18T15:29:28.125Z,3.78
2023-05-18T15:32:13.896Z,3.63
2023-05-18T15:35:01.309Z,4.80
2023-05-18T15:42:46.441Z,3.47
2023-05-18T15:45:32.623Z,3.40
2023-05-18T15:48:18.432Z,3.80
2023-05-18T15:51:04.414Z,3.22
2023-05-18T15:53:50.561Z,3.25
2023-05-18T15:56:43.802Z,3.30
2023-05-18T15:59:29.645Z,3.90
2023-05-18T16:02:15.822Z,3.70
2023-05-18T16:05:01.785Z,3.92
2023-05-18T16:07:47.709Z,3.83
2023-05-18T16:10:33.956Z,3.90
2023-05-18T16:13:22.724Z,4.60
2023-05-18T16:16:10.496Z,4.60
2023-05-18T16:18:56.584Z,4.30
2023-05-18T16:21:42.961Z,3.83
2023-05-18T16:24:29.317Z,4.40
2023-05-18T16:27:16.677Z,3.42
2023-05-18T16:30:03.444Z,4.15
2023-05-18T16:32:49.786Z,4.10
2023-05-18T16:35:35.847Z,3.80
2023-05-18T16:38:22.120Z,3.67
2023-05-18T16:41:08.219Z,5.53
2023-05-18T16:43:54.808Z,3.83
2023-05-18T16:46:40.744Z,4.45
2023-05-18T16:49:31.992Z,4.40
2023-05-18T16:52:18.580Z,5.00
2023-05-18T16:55:13.843Z,5.05
2023-05-18T16:58:00.068Z,4.88
2023-05-18T17:05:41.919Z,4.93
2023-05-18T17:08:28.044Z,5.78
2023-05-18T17:11:43.937Z,4.93
2023-05-18T17:14:29.936Z,5.10
2023-05-18T17:18:31.966Z,5.13
2023-05-18T17:21:18.332Z,4.07
2023-05-18T17:24:45.349Z,3.80
2023-05-18T17:27:32.143Z,3.60
2023-05-18T17:30:19.724Z,4.63
2023-05-18T17:33:38.200Z,4.30
2023-05-18T17:36:24.191Z,4.40
2023-05-18T17:39:10.528Z,4.47
2023-05-18T17:41:56.545Z,4.53
2023-05-18T17:44:42.484Z,4.00
2023-05-18T17:47:28.692Z,5.60
2023-05-18T17:50:15.431Z,4.38
2023-05-18T17:53:01.733Z,5.53
2023-05-18T17:55:47.966Z,5.43
2023-05-18T17:58:37.240Z,4.95
2023-05-18T18:01:23.535Z,5.07
2023-05-18T18:04:09.573Z,4.35
2023-05-18T18:06:56.112Z,5.07
2023-05-18T18:09:42.080Z,7.20
2023-05-18T18:12:27.877Z,53.30
2023-05-18T18:15:14.047Z,59.20
2023-05-18T18:18:03.600Z,21.83
2023-05-18T18:20:49.700Z,8.05
2023-05-18T18:23:36.919Z,5.75
2023-05-18T18:26:23.100Z,48.05
2023-05-18T18:29:09.040Z,65.65
2023-05-18T18:31:56.080Z,12.35
2023-05-18T18:34:44.444Z,5.75
2023-05-18T18:37:30.595Z,6.20
2023-05-18T18:40:20.027Z,4.90
2023-05-18T18:43:06.203Z,6.38
2023-05-18T18:45:52.456Z,5.78
2023-05-18T18:48:38.336Z,5.82
2023-05-18T18:51:24.687Z,4.75
2023-05-18T18:54:11.042Z,4.40
2023-05-18T18:56:57.046Z,4.90
2023-05-18T18:59:43.558Z,4.50
2023-05-18T19:02:29.734Z,4.35
2023-05-18T19:05:21.501Z,5.07
2023-05-18T19:08:07.692Z,4.70
2023-05-18T19:10:54.479Z,4.57
2023-05-18T19:13:40.621Z,75.43
2023-05-18T19:16:27.058Z,33.85
2023-05-18T19:19:13.440Z,11.30
2023-05-18T19:21:59.741Z,6.18
2023-05-18T19:24:47.131Z,5.00
2023-05-18T19:27:33.505Z,4.50
2023-05-18T19:30:21.617Z,4.28
2023-05-18T19:33:07.779Z,4.72
2023-05-18T19:35:54.522Z,4.40
2023-05-18T19:38:41.653Z,16.17
2023-05-18T19:41:27.878Z,16.92
2023-05-18T19:44:14.895Z,5.55
2023-05-18T19:47:07.645Z,4.40
2023-05-18T19:49:53.698Z,57.47
2023-05-18T19:52:39.525Z,58.13
2023-05-18T19:55:25.552Z,45.08
2023-05-18T19:58:14.179Z,7.15
2023-05-18T20:01:00.258Z,5.78
2023-05-18T20:03:47.277Z,36.78
2023-05-18T20:06:34.083Z,34.20
2023-05-18T20:09:39.842Z,41.88
2023-05-18T20:12:32.473Z,7.28
2023-05-18T20:15:26.665Z,6.40
2023-05-18T20:18:12.849Z,6.03
2023-05-18T20:20:59.061Z,5.95
2023-05-18T20:23:47.533Z,6.80
2023-05-18T20:26:34.311Z,4.68
2023-05-18T20:29:20.688Z,4.20
2023-05-18T20:32:26.264Z,4.30
2023-05-18T20:35:16.036Z,4.32
2023-05-18T20:38:04.784Z,4.10
2023-05-18T20:40:56.004Z,4.68
2023-05-18T20:43:42.036Z,4.30
2023-05-18T20:46:34.075Z,4.90
2023-05-18T20:49:25.244Z,4.20
2023-05-18T20:52:11.525Z,5.38
2023-05-18T20:54:57.957Z,4.38
2023-05-18T20:57:45.266Z,4.95
2023-05-18T21:00:33.320Z,4.55
2023-05-18T21:03:20.370Z,4.35
2023-05-18T21:06:06.684Z,4.05
2023-05-18T21:08:52.913Z,4.00
2023-05-18T21:11:38.907Z,3.58
2023-05-18T21:14:27.366Z,3.42
2023-05-18T21:17:15.362Z,3.45
2023-05-18T21:20:01.703Z,3.38
2023-05-18T21:22:47.824Z,3.42
2023-05-18T21:25:34.318Z,3.38
2023-05-18T21:28:21.853Z,3.03
2023-05-18T21:31:07.781Z,3.25
2023-05-18T21:33:54.859Z,3.75
2023-05-18T21:36:41.686Z,2.83
2023-05-18T21:39:28.835Z,2.65
2023-05-18T21:42:14.849Z,2.90
2023-05-18T21:45:01.128Z,3.10
2023-05-18T21:47:49.156Z,3.30
2023-05-18T21:50:35.802Z,2.58
2023-05-18T21:53:21.948Z,3.00
2023-05-18T21:56:08.077Z,3.08
2023-05-18T21:58:55.601Z,2.95
2023-05-18T22:01:41.609Z,2.95
2023-05-18T22:04:27.940Z,2.88
2023-05-18T22:07:14.808Z,2.83
2023-05-18T22:10:00.819Z,3.28
2023-05-18T22:12:46.970Z,3.00
2023-05-18T22:15:33.775Z,3.28
2023-05-18T22:18:19.742Z,3.47
2023-05-18T22:21:07.525Z,3.03
2023-05-18T22:23:56.754Z,3.55
2023-05-18T22:26:43.485Z,3.45
2023-05-18T22:29:29.686Z,3.33
2023-05-18T22:32:18.040Z,3.40
2023-05-18T22:35:04.786Z,3.40
2023-05-18T22:37:50.852Z,3.80
2023-05-18T22:40:36.787Z,3.50
2023-05-18T22:43:23.206Z,3.47
2023-05-18T22:46:11.135Z,3.63
2023-05-18T22:49:03.354Z,4.40
2023-05-18T22:51:50.139Z,3.33
2023-05-18T22:54:40.131Z,4.07
2023-05-18T22:57:33.020Z,4.10
2023-05-18T23:00:19.461Z,4.00
2023-05-18T23:03:05.541Z,4.00
2023-05-18T23:05:51.630Z,3.65
2023-05-18T23:08:37.746Z,3.90
2023-05-18T23:11:25.652Z,4.00
2023-05-18T23:14:12.162Z,4.10
2023-05-18T23:17:02.703Z,4.15
2023-05-18T23:19:50.313Z,4.65
2023-05-18T23:22:36.455Z,4.43
2023-05-18T23:25:22.839Z,4.78
2023-05-18T23:28:08.997Z,4.60
2023-05-18T23:30:55.096Z,4.78
2023-05-18T23:33:41.590Z,5.30
2023-05-18T23:36:30.717Z,5.25
2023-05-18T23:39:16.911Z,4.82
2023-05-18T23:42:03.712Z,4.80
2023-05-18T23:44:50.044Z,5.60
2023-05-18T23:47:36.434Z,5.07
2023-05-18T23:50:23.127Z,4.72
2023-05-18T23:53:11.205Z,5.65
2023-05-18T23:55:59.300Z,4.78
2023-05-18T23:58:46.583Z,5.10
